sensor_id;sensor_type;location;lat;lon;timestamp;P1;durP1;ratioP1;P2;durP2;ratioP2
5900;SDS011;2976;49.764;9.796;2023-10-09T00:01:25;6.07;;;3.93;;
5900;SDS011;2976;49.764;9.796;2023-10-09T00:03:51;6.27;;;3.90;;
5900;SDS011;2976;49.764;9.796;2023-10-09T00:06:20;5.77;;;3.57;;
5900;SDS011;2976;49.764;9.796;2023-10-09T00:08:56;4.93;;;3.37;;
5900;SDS011;2976;49.764;9.796;2023-10-09T00:11:23;4.80;;;3.43;;
5900;SDS011;2976;49.764;9.796;2023-10-09T00:13:54;3.67;;;3.33;;
5900;SDS011;2976;49.764;9.796;2023-10-09T00:16:23;8.33;;;3.33;;
5900;SDS011;2976;49.764;9.796;2023-10-09T00:19:03;5.70;;;4.03;;
5900;SDS011;2976;49.764;9.796;2023-10-09T00:21:41;4.33;;;3.73;;
5900;SDS011;2976;49.764;9.796;2023-10-09T00:24:08;4.90;;;4.40;;
5900;SDS011;2976;49.764;9.796;2023-10-09T00:26:50;7.97;;;4.90;;
5900;SDS011;2976;49.764;9.796;2023-10-09T00:29:16;9.53;;;4.63;;
5900;SDS011;2976;49.764;9.796;2023-10-09T00:31:54;9.70;;;4.70;;
5900;SDS011;2976;49.764;9.796;2023-10-09T00:34:28;6.37;;;3.73;;
5900;SDS011;2976;49.764;9.796;2023-10-09T00:36:54;7.83;;;4.67;;
5900;SDS011;2976;49.764;9.796;2023-10-09T00:39:22;8.30;;;4.60;;
5900;SDS011;2976;49.764;9.796;2023-10-09T00:41:59;6.50;;;4.17;;
5900;SDS011;2976;49.764;9.796;2023-10-09T00:44:26;9.50;;;4.97;;
5900;SDS011;2976;49.764;9.796;2023-10-09T00:47:03;6.40;;;4.87;;
5900;SDS011;2976;49.764;9.796;2023-10-09T00:49:45;9.27;;;4.50;;
5900;SDS011;2976;49.764;9.796;2023-10-09T00:52:13;13.27;;;5.43;;
5900;SDS011;2976;49.764;9.796;2023-10-09T00:54:47;9.17;;;4.50;;
5900;SDS011;2976;49.764;9.796;2023-10-09T00:57:17;10.30;;;5.13;;
5900;SDS011;2976;49.764;9.796;2023-10-09T00:59:49;7.70;;;4.53;;
5900;SDS011;2976;49.764;9.796;2023-10-09T01:02:24;6.30;;;4.20;;
5900;SDS011;2976;49.764;9.796;2023-10-09T01:05:01;6.43;;;4.67;;
5900;SDS011;2976;49.764;9.796;2023-10-09T01:07:46;5.37;;;4.83;;
5900;SDS011;2976;49.764;9.796;2023-10-09T01:10:13;10.80;;;6.40;;
5900;SDS011;2976;49.764;9.796;2023-10-09T01:12:42;17.00;;;5.60;;
5900;SDS011;2976;49.764;9.796;2023-10-09T01:15:09;12.20;;;5.60;;
5900;SDS011;2976;49.764;9.796;2023-10-09T01:17:55;8.47;;;5.57;;
5900;SDS011;2976;49.764;9.796;2023-10-09T01:20:23;8.63;;;6.13;;
5900;SDS011;2976;49.764;9.796;2023-10-09T01:22:55;16.40;;;7.07;;
5900;SDS011;2976;49.764;9.796;2023-10-09T01:25:20;11.77;;;7.17;;
5900;SDS011;2976;49.764;9.796;2023-10-09T01:27:46;11.93;;;7.10;;
5900;SDS011;2976;49.764;9.796;2023-10-09T01:30:12;10.23;;;6.60;;
5900;SDS011;2976;49.764;9.796;2023-10-09T01:32:39;10.87;;;6.30;;
5900;SDS011;2976;49.764;9.796;2023-10-09T01:35:06;17.40;;;6.73;;
5900;SDS011;2976;49.764;9.796;2023-10-09T01:37:44;15.43;;;6.97;;
5900;SDS011;2976;49.764;9.796;2023-10-09T01:40:14;9.60;;;6.90;;
5900;SDS011;2976;49.764;9.796;2023-10-09T01:43:00;14.03;;;7.03;;
5900;SDS011;2976;49.764;9.796;2023-10-09T01:45:28;15.50;;;7.17;;
5900;SDS011;2976;49.764;9.796;2023-10-09T01:47:55;17.30;;;7.10;;
5900;SDS011;2976;49.764;9.796;2023-10-09T01:50:20;11.37;;;6.93;;
5900;SDS011;2976;49.764;9.796;2023-10-09T01:52:55;13.10;;;7.00;;
5900;SDS011;2976;49.764;9.796;2023-10-09T01:55:21;16.00;;;7.43;;
5900;SDS011;2976;49.764;9.796;2023-10-09T01:57:54;9.90;;;6.43;;
5900;SDS011;2976;49.764;9.796;2023-10-09T02:00:23;15.30;;;7.50;;
5900;SDS011;2976;49.764;9.796;2023-10-09T02:02:54;10.87;;;6.83;;
5900;SDS011;2976;49.764;9.796;2023-10-09T02:05:19;10.30;;;6.90;;
5900;SDS011;2976;49.764;9.796;2023-10-09T02:07:45;11.50;;;6.40;;
5900;SDS011;2976;49.764;9.796;2023-10-09T02:10:20;12.73;;;8.03;;
5900;SDS011;2976;49.764;9.796;2023-10-09T02:12:50;14.30;;;8.03;;
5900;SDS011;2976;49.764;9.796;2023-10-09T02:15:25;12.67;;;7.37;;
5900;SDS011;2976;49.764;9.796;2023-10-09T02:18:10;13.23;;;7.70;;
5900;SDS011;2976;49.764;9.796;2023-10-09T02:20:44;11.77;;;7.20;;
5900;SDS011;2976;49.764;9.796;2023-10-09T02:23:11;19.83;;;7.33;;
5900;SDS011;2976;49.764;9.796;2023-10-09T02:25:45;14.50;;;8.67;;
5900;SDS011;2976;49.764;9.796;2023-10-09T02:28:12;15.50;;;7.87;;
5900;SDS011;2976;49.764;9.796;2023-10-09T02:30:44;19.80;;;9.00;;
5900;SDS011;2976;49.764;9.796;2023-10-09T02:33:15;20.63;;;8.30;;
5900;SDS011;2976;49.764;9.796;2023-10-09T02:35:52;10.97;;;8.30;;
5900;SDS011;2976;49.764;9.796;2023-10-09T02:38:19;13.13;;;8.20;;
5900;SDS011;2976;49.764;9.796;2023-10-09T02:40:49;14.50;;;7.27;;
5900;SDS011;2976;49.764;9.796;2023-10-09T02:43:34;13.27;;;7.30;;
5900;SDS011;2976;49.764;9.796;2023-10-09T02:46:19;15.13;;;8.47;;
5900;SDS011;2976;49.764;9.796;2023-10-09T02:48:48;12.73;;;7.00;;
5900;SDS011;2976;49.764;9.796;2023-10-09T02:51:18;13.97;;;8.20;;
5900;SDS011;2976;49.764;9.796;2023-10-09T02:53:53;13.50;;;7.80;;
5900;SDS011;2976;49.764;9.796;2023-10-09T02:56:23;9.20;;;5.53;;
5900;SDS011;2976;49.764;9.796;2023-10-09T02:58:52;10.97;;;5.47;;
5900;SDS011;2976;49.764;9.796;2023-10-09T03:01:19;10.07;;;6.27;;
5900;SDS011;2976;49.764;9.796;2023-10-09T03:03:44;8.23;;;5.77;;
5900;SDS011;2976;49.764;9.796;2023-10-09T03:06:12;13.23;;;6.73;;
5900;SDS011;2976;49.764;9.796;2023-10-09T03:08:39;9.30;;;5.80;;
5900;SDS011;2976;49.764;9.796;2023-10-09T03:11:06;13.77;;;6.70;;
5900;SDS011;2976;49.764;9.796;2023-10-09T03:13:39;14.90;;;6.00;;
5900;SDS011;2976;49.764;9.796;2023-10-09T03:16:09;9.30;;;6.13;;
5900;SDS011;2976;49.764;9.796;2023-10-09T03:18:44;8.13;;;5.83;;
5900;SDS011;2976;49.764;9.796;2023-10-09T03:21:28;10.77;;;5.90;;
5900;SDS011;2976;49.764;9.796;2023-10-09T03:23:54;10.73;;;6.53;;
5900;SDS011;2976;49.764;9.796;2023-10-09T03:26:21;14.17;;;6.53;;
5900;SDS011;2976;49.764;9.796;2023-10-09T03:28:50;12.83;;;6.27;;
5900;SDS011;2976;49.764;9.796;2023-10-09T03:31:17;11.30;;;5.90;;
5900;SDS011;2976;49.764;9.796;2023-10-09T03:33:43;13.70;;;7.20;;
5900;SDS011;2976;49.764;9.796;2023-10-09T03:36:08;9.30;;;6.63;;
5900;SDS011;2976;49.764;9.796;2023-10-09T03:38:37;10.00;;;6.47;;
5900;SDS011;2976;49.764;9.796;2023-10-09T03:41:04;11.10;;;5.93;;
5900;SDS011;2976;49.764;9.796;2023-10-09T03:43:36;8.87;;;6.37;;
5900;SDS011;2976;49.764;9.796;2023-10-09T03:46:04;8.87;;;5.80;;
5900;SDS011;2976;49.764;9.796;2023-10-09T03:48:30;11.13;;;6.10;;
5900;SDS011;2976;49.764;9.796;2023-10-09T03:51:01;7.33;;;5.43;;
5900;SDS011;2976;49.764;9.796;2023-10-09T03:53:34;10.07;;;6.10;;
5900;SDS011;2976;49.764;9.796;2023-10-09T03:56:07;10.57;;;5.60;;
5900;SDS011;2976;49.764;9.796;2023-10-09T03:58:39;10.03;;;4.90;;
5900;SDS011;2976;49.764;9.796;2023-10-09T04:01:10;10.07;;;5.90;;
5900;SDS011;2976;49.764;9.796;2023-10-09T04:03:43;18.37;;;6.30;;
5900;SDS011;2976;49.764;9.796;2023-10-09T04:06:09;12.00;;;7.13;;
5900;SDS011;2976;49.764;9.796;2023-10-09T04:08:36;8.57;;;6.03;;
5900;SDS011;2976;49.764;9.796;2023-10-09T04:11:04;18.03;;;8.20;;
5900;SDS011;2976;49.764;9.796;2023-10-09T04:13:41;17.77;;;6.33;;
5900;SDS011;2976;49.764;9.796;2023-10-09T04:16:12;15.30;;;8.60;;
5900;SDS011;2976;49.764;9.796;2023-10-09T04:19:02;15.07;;;7.47;;
5900;SDS011;2976;49.764;9.796;2023-10-09T04:21:37;10.97;;;6.70;;
5900;SDS011;2976;49.764;9.796;2023-10-09T04:24:03;20.70;;;6.90;;
5900;SDS011;2976;49.764;9.796;2023-10-09T04:26:39;13.00;;;7.17;;
5900;SDS011;2976;49.764;9.796;2023-10-09T04:29:12;12.87;;;6.53;;
5900;SDS011;2976;49.764;9.796;2023-10-09T04:31:52;21.00;;;7.80;;
5900;SDS011;2976;49.764;9.796;2023-10-09T04:34:24;11.17;;;6.47;;
5900;SDS011;2976;49.764;9.796;2023-10-09T04:36:53;12.13;;;7.00;;
5900;SDS011;2976;49.764;9.796;2023-10-09T04:39:29;11.10;;;6.83;;
5900;SDS011;2976;49.764;9.796;2023-10-09T04:41:57;15.93;;;7.30;;
5900;SDS011;2976;49.764;9.796;2023-10-09T04:44:42;15.57;;;6.77;;
5900;SDS011;2976;49.764;9.796;2023-10-09T04:47:33;12.80;;;7.07;;
5900;SDS011;2976;49.764;9.796;2023-10-09T04:50:03;15.87;;;6.33;;
5900;SDS011;2976;49.764;9.796;2023-10-09T04:52:37;14.10;;;5.93;;
5900;SDS011;2976;49.764;9.796;2023-10-09T04:55:03;16.73;;;6.07;;
5900;SDS011;2976;49.764;9.796;2023-10-09T04:57:32;13.50;;;6.40;;
5900;SDS011;2976;49.764;9.796;2023-10-09T05:00:24;12.13;;;5.70;;
5900;SDS011;2976;49.764;9.796;2023-10-09T05:02:50;13.03;;;5.67;;
5900;SDS011;2976;49.764;9.796;2023-10-09T05:05:36;12.07;;;5.80;;
5900;SDS011;2976;49.764;9.796;2023-10-09T05:08:14;9.27;;;5.97;;
5900;SDS011;2976;49.764;9.796;2023-10-09T05:10:54;9.37;;;5.50;;
5900;SDS011;2976;49.764;9.796;2023-10-09T05:13:33;5.83;;;5.13;;
5900;SDS011;2976;49.764;9.796;2023-10-09T05:16:09;13.30;;;5.10;;
5900;SDS011;2976;49.764;9.796;2023-10-09T05:18:48;7.50;;;4.90;;
5900;SDS011;2976;49.764;9.796;2023-10-09T05:21:33;8.73;;;5.30;;
5900;SDS011;2976;49.764;9.796;2023-10-09T05:24:06;11.40;;;5.40;;
5900;SDS011;2976;49.764;9.796;2023-10-09T05:26:42;12.70;;;5.37;;
5900;SDS011;2976;49.764;9.796;2023-10-09T05:29:21;22.23;;;4.70;;
5900;SDS011;2976;49.764;9.796;2023-10-09T05:31:53;12.33;;;4.63;;
5900;SDS011;2976;49.764;9.796;2023-10-09T05:34:29;7.10;;;4.70;;
5900;SDS011;2976;49.764;9.796;2023-10-09T05:37:13;5.93;;;3.60;;
5900;SDS011;2976;49.764;9.796;2023-10-09T05:39:45;9.20;;;4.43;;
5900;SDS011;2976;49.764;9.796;2023-10-09T05:42:33;10.97;;;4.37;;
5900;SDS011;2976;49.764;9.796;2023-10-09T05:45:05;11.57;;;5.70;;
5900;SDS011;2976;49.764;9.796;2023-10-09T05:47:51;9.57;;;4.73;;
5900;SDS011;2976;49.764;9.796;2023-10-09T05:50:36;7.33;;;3.70;;
5900;SDS011;2976;49.764;9.796;2023-10-09T05:53:22;15.60;;;4.30;;
5900;SDS011;2976;49.764;9.796;2023-10-09T05:56:20;13.47;;;3.50;;
5900;SDS011;2976;49.764;9.796;2023-10-09T05:58:57;7.90;;;4.00;;
5900;SDS011;2976;49.764;9.796;2023-10-09T06:01:41;9.10;;;3.87;;
5900;SDS011;2976;49.764;9.796;2023-10-09T06:04:22;9.33;;;4.97;;
5900;SDS011;2976;49.764;9.796;2023-10-09T06:06:59;7.07;;;3.43;;
5900;SDS011;2976;49.764;9.796;2023-10-09T06:09:36;5.90;;;3.63;;
5900;SDS011;2976;49.764;9.796;2023-10-09T06:12:14;8.10;;;3.03;;
5900;SDS011;2976;49.764;9.796;2023-10-09T06:14:59;7.50;;;3.20;;
5900;SDS011;2976;49.764;9.796;2023-10-09T06:17:51;10.50;;;3.57;;
5900;SDS011;2976;49.764;9.796;2023-10-09T06:20:17;5.63;;;4.00;;
5900;SDS011;2976;49.764;9.796;2023-10-09T06:23:12;6.70;;;3.13;;
5900;SDS011;2976;49.764;9.796;2023-10-09T06:25:42;8.07;;;2.90;;
5900;SDS011;2976;49.764;9.796;2023-10-09T06:28:16;5.50;;;3.20;;
5900;SDS011;2976;49.764;9.796;2023-10-09T06:30:44;10.87;;;4.87;;
5900;SDS011;2976;49.764;9.796;2023-10-09T06:33:12;8.20;;;3.17;;
5900;SDS011;2976;49.764;9.796;2023-10-09T06:35:44;7.63;;;3.63;;
5900;SDS011;2976;49.764;9.796;2023-10-09T06:38:18;10.20;;;3.90;;
5900;SDS011;2976;49.764;9.796;2023-10-09T06:40:48;10.33;;;3.57;;
5900;SDS011;2976;49.764;9.796;2023-10-09T06:43:47;4.63;;;2.83;;
5900;SDS011;2976;49.764;9.796;2023-10-09T06:46:18;4.13;;;2.30;;
5900;SDS011;2976;49.764;9.796;2023-10-09T06:48:49;6.70;;;3.60;;
5900;SDS011;2976;49.764;9.796;2023-10-09T06:51:21;6.90;;;3.23;;
5900;SDS011;2976;49.764;9.796;2023-10-09T06:53:50;11.50;;;3.53;;
5900;SDS011;2976;49.764;9.796;2023-10-09T06:56:26;9.10;;;3.33;;
5900;SDS011;2976;49.764;9.796;2023-10-09T07:01:29;7.13;;;2.93;;
5900;SDS011;2976;49.764;9.796;2023-10-09T07:04:11;5.87;;;3.50;;
5900;SDS011;2976;49.764;9.796;2023-10-09T07:06:57;6.13;;;3.40;;
5900;SDS011;2976;49.764;9.796;2023-10-09T07:09:24;12.97;;;2.70;;
5900;SDS011;2976;49.764;9.796;2023-10-09T07:12:07;5.57;;;4.17;;
5900;SDS011;2976;49.764;9.796;2023-10-09T07:14:39;6.00;;;2.90;;
5900;SDS011;2976;49.764;9.796;2023-10-09T07:17:06;11.33;;;3.17;;
5900;SDS011;2976;49.764;9.796;2023-10-09T07:19:52;6.57;;;2.90;;
5900;SDS011;2976;49.764;9.796;2023-10-09T07:22:18;9.43;;;3.50;;
5900;SDS011;2976;49.764;9.796;2023-10-09T07:27:26;6.33;;;3.23;;
5900;SDS011;2976;49.764;9.796;2023-10-09T07:30:22;8.97;;;2.90;;
5900;SDS011;2976;49.764;9.796;2023-10-09T07:33:00;4.07;;;2.93;;
5900;SDS011;2976;49.764;9.796;2023-10-09T07:35:33;10.33;;;2.90;;
5900;SDS011;2976;49.764;9.796;2023-10-09T07:38:08;7.20;;;2.83;;
5900;SDS011;2976;49.764;9.796;2023-10-09T07:40:35;8.33;;;3.70;;
5900;SDS011;2976;49.764;9.796;2023-10-09T07:43:20;6.27;;;2.23;;
5900;SDS011;2976;49.764;9.796;2023-10-09T07:45:51;7.50;;;2.97;;
5900;SDS011;2976;49.764;9.796;2023-10-09T07:48:39;8.50;;;2.80;;
5900;SDS011;2976;49.764;9.796;2023-10-09T07:51:17;10.20;;;3.37;;
5900;SDS011;2976;49.764;9.796;2023-10-09T07:53:51;5.20;;;2.30;;
5900;SDS011;2976;49.764;9.796;2023-10-09T07:56:22;6.83;;;2.70;;
5900;SDS011;2976;49.764;9.796;2023-10-09T07:58:49;4.83;;;2.60;;
5900;SDS011;2976;49.764;9.796;2023-10-09T08:01:15;8.53;;;2.50;;
5900;SDS011;2976;49.764;9.796;2023-10-09T08:03:46;7.00;;;2.73;;
5900;SDS011;2976;49.764;9.796;2023-10-09T08:06:14;5.73;;;2.40;;
5900;SDS011;2976;49.764;9.796;2023-10-09T08:08:59;3.90;;;2.47;;
5900;SDS011;2976;49.764;9.796;2023-10-09T08:11:31;6.07;;;2.77;;
5900;SDS011;2976;49.764;9.796;2023-10-09T08:14:08;7.33;;;2.53;;
5900;SDS011;2976;49.764;9.796;2023-10-09T08:17:06;11.73;;;2.73;;
5900;SDS011;2976;49.764;9.796;2023-10-09T08:19:42;6.40;;;2.77;;
5900;SDS011;2976;49.764;9.796;2023-10-09T08:22:27;8.77;;;2.90;;
5900;SDS011;2976;49.764;9.796;2023-10-09T08:24:54;10.40;;;2.60;;
5900;SDS011;2976;49.764;9.796;2023-10-09T08:27:23;15.70;;;3.53;;
5900;SDS011;2976;49.764;9.796;2023-10-09T08:29:58;12.50;;;3.03;;
5900;SDS011;2976;49.764;9.796;2023-10-09T08:32:43;5.03;;;2.73;;
5900;SDS011;2976;49.764;9.796;2023-10-09T08:35:32;6.70;;;3.20;;
5900;SDS011;2976;49.764;9.796;2023-10-09T08:38:00;4.90;;;2.93;;
5900;SDS011;2976;49.764;9.796;2023-10-09T08:40:37;4.17;;;2.63;;
5900;SDS011;2976;49.764;9.796;2023-10-09T08:43:14;4.43;;;2.70;;
5900;SDS011;2976;49.764;9.796;2023-10-09T08:45:45;4.40;;;2.23;;
5900;SDS011;2976;49.764;9.796;2023-10-09T08:48:29;10.33;;;3.20;;
5900;SDS011;2976;49.764;9.796;2023-10-09T08:50:55;14.63;;;3.30;;
5900;SDS011;2976;49.764;9.796;2023-10-09T08:53:24;8.80;;;2.63;;
5900;SDS011;2976;49.764;9.796;2023-10-09T08:55:52;10.60;;;2.90;;
5900;SDS011;2976;49.764;9.796;2023-10-09T08:58:18;5.67;;;2.77;;
5900;SDS011;2976;49.764;9.796;2023-10-09T09:00:57;10.90;;;3.37;;
5900;SDS011;2976;49.764;9.796;2023-10-09T09:03:23;14.30;;;3.30;;
5900;SDS011;2976;49.764;9.796;2023-10-09T09:05:57;9.50;;;3.60;;
5900;SDS011;2976;49.764;9.796;2023-10-09T09:08:27;10.50;;;5.10;;
5900;SDS011;2976;49.764;9.796;2023-10-09T09:10:58;8.00;;;2.90;;
5900;SDS011;2976;49.764;9.796;2023-10-09T09:13:31;7.23;;;2.87;;
5900;SDS011;2976;49.764;9.796;2023-10-09T09:15:56;7.87;;;2.97;;
5900;SDS011;2976;49.764;9.796;2023-10-09T09:18:23;5.93;;;2.50;;
5900;SDS011;2976;49.764;9.796;2023-10-09T09:20:56;6.50;;;2.70;;
5900;SDS011;2976;49.764;9.796;2023-10-09T09:23:23;5.90;;;2.50;;
5900;SDS011;2976;49.764;9.796;2023-10-09T09:25:49;7.37;;;2.90;;
5900;SDS011;2976;49.764;9.796;2023-10-09T09:28:23;5.97;;;3.50;;
5900;SDS011;2976;49.764;9.796;2023-10-09T09:30:52;12.70;;;2.90;;
5900;SDS011;2976;49.764;9.796;2023-10-09T09:33:25;9.97;;;4.90;;
5900;SDS011;2976;49.764;9.796;2023-10-09T09:36:04;9.30;;;2.70;;
5900;SDS011;2976;49.764;9.796;2023-10-09T09:38:31;6.83;;;2.83;;
5900;SDS011;2976;49.764;9.796;2023-10-09T09:41:13;6.10;;;3.13;;
5900;SDS011;2976;49.764;9.796;2023-10-09T09:43:50;7.63;;;3.40;;
5900;SDS011;2976;49.764;9.796;2023-10-09T09:46:32;11.33;;;3.20;;
5900;SDS011;2976;49.764;9.796;2023-10-09T09:49:01;9.23;;;3.73;;
5900;SDS011;2976;49.764;9.796;2023-10-09T09:51:32;6.90;;;3.47;;
5900;SDS011;2976;49.764;9.796;2023-10-09T09:53:58;7.80;;;3.27;;
5900;SDS011;2976;49.764;9.796;2023-10-09T09:56:26;8.93;;;2.57;;
5900;SDS011;2976;49.764;9.796;2023-10-09T09:58:54;8.00;;;3.20;;
5900;SDS011;2976;49.764;9.796;2023-10-09T10:01:28;6.10;;;2.17;;
5900;SDS011;2976;49.764;9.796;2023-10-09T10:04:01;8.83;;;3.40;;
5900;SDS011;2976;49.764;9.796;2023-10-09T10:06:36;11.13;;;3.80;;
5900;SDS011;2976;49.764;9.796;2023-10-09T10:09:06;7.90;;;3.13;;
5900;SDS011;2976;49.764;9.796;2023-10-09T10:11:42;10.67;;;3.43;;
5900;SDS011;2976;49.764;9.796;2023-10-09T10:14:14;5.67;;;2.70;;
5900;SDS011;2976;49.764;9.796;2023-10-09T10:16:59;8.60;;;2.67;;
5900;SDS011;2976;49.764;9.796;2023-10-09T10:19:25;18.97;;;3.40;;
5900;SDS011;2976;49.764;9.796;2023-10-09T10:22:29;11.60;;;3.10;;
5900;SDS011;2976;49.764;9.796;2023-10-09T10:24:56;5.63;;;3.20;;
5900;SDS011;2976;49.764;9.796;2023-10-09T10:27:34;11.10;;;3.40;;
5900;SDS011;2976;49.764;9.796;2023-10-09T10:35:16;11.33;;;2.80;;
5900;SDS011;2976;49.764;9.796;2023-10-09T10:37:45;4.63;;;2.50;;
5900;SDS011;2976;49.764;9.796;2023-10-09T10:40:26;6.03;;;3.10;;
5900;SDS011;2976;49.764;9.796;2023-10-09T10:43:06;6.20;;;2.60;;
5900;SDS011;2976;49.764;9.796;2023-10-09T10:46:05;5.60;;;2.57;;
5900;SDS011;2976;49.764;9.796;2023-10-09T10:48:52;10.27;;;2.90;;
5900;SDS011;2976;49.764;9.796;2023-10-09T10:51:27;11.87;;;3.30;;
5900;SDS011;2976;49.764;9.796;2023-10-09T10:54:05;8.90;;;3.07;;
5900;SDS011;2976;49.764;9.796;2023-10-09T10:56:52;11.50;;;3.00;;
5900;SDS011;2976;49.764;9.796;2023-10-09T10:59:22;12.00;;;2.50;;
5900;SDS011;2976;49.764;9.796;2023-10-09T11:01:49;8.80;;;3.40;;
5900;SDS011;2976;49.764;9.796;2023-10-09T11:04:25;4.30;;;3.17;;
5900;SDS011;2976;49.764;9.796;2023-10-09T11:07:12;8.30;;;2.33;;
5900;SDS011;2976;49.764;9.796;2023-10-09T11:09:46;11.77;;;3.87;;
5900;SDS011;2976;49.764;9.796;2023-10-09T11:15:06;16.37;;;2.90;;
5900;SDS011;2976;49.764;9.796;2023-10-09T11:17:34;12.63;;;3.00;;
5900;SDS011;2976;49.764;9.796;2023-10-09T11:20:01;7.43;;;3.10;;
5900;SDS011;2976;49.764;9.796;2023-10-09T11:22:48;7.60;;;3.07;;
5900;SDS011;2976;49.764;9.796;2023-10-09T11:25:33;7.60;;;3.13;;
5900;SDS011;2976;49.764;9.796;2023-10-09T11:27:59;7.17;;;3.20;;
5900;SDS011;2976;49.764;9.796;2023-10-09T11:30:40;15.37;;;4.80;;
5900;SDS011;2976;49.764;9.796;2023-10-09T11:33:10;13.07;;;3.20;;
5900;SDS011;2976;49.764;9.796;2023-10-09T11:35:39;6.80;;;2.50;;
5900;SDS011;2976;49.764;9.796;2023-10-09T11:38:08;8.57;;;3.17;;
5900;SDS011;2976;49.764;9.796;2023-10-09T11:40:54;4.67;;;3.37;;
5900;SDS011;2976;49.764;9.796;2023-10-09T11:43:20;13.50;;;3.60;;
5900;SDS011;2976;49.764;9.796;2023-10-09T11:45:51;6.37;;;2.90;;
5900;SDS011;2976;49.764;9.796;2023-10-09T11:48:20;7.90;;;3.00;;
5900;SDS011;2976;49.764;9.796;2023-10-09T11:51:11;5.33;;;3.30;;
5900;SDS011;2976;49.764;9.796;2023-10-09T11:53:46;6.57;;;3.40;;
5900;SDS011;2976;49.764;9.796;2023-10-09T11:56:15;9.00;;;2.50;;
5900;SDS011;2976;49.764;9.796;2023-10-09T11:58:48;5.60;;;3.07;;
5900;SDS011;2976;49.764;9.796;2023-10-09T12:01:17;6.93;;;2.50;;
5900;SDS011;2976;49.764;9.796;2023-10-09T12:03:45;5.57;;;2.90;;
5900;SDS011;2976;49.764;9.796;2023-10-09T12:06:17;9.30;;;3.77;;
5900;SDS011;2976;49.764;9.796;2023-10-09T12:08:45;9.37;;;2.93;;
5900;SDS011;2976;49.764;9.796;2023-10-09T12:11:14;14.67;;;3.17;;
5900;SDS011;2976;49.764;9.796;2023-10-09T12:13:47;8.50;;;3.50;;
5900;SDS011;2976;49.764;9.796;2023-10-09T12:16:13;10.20;;;3.27;;
5900;SDS011;2976;49.764;9.796;2023-10-09T12:18:40;3.90;;;2.60;;
5900;SDS011;2976;49.764;9.796;2023-10-09T12:21:07;7.10;;;2.90;;
5900;SDS011;2976;49.764;9.796;2023-10-09T12:23:40;8.20;;;2.90;;
5900;SDS011;2976;49.764;9.796;2023-10-09T12:26:09;4.77;;;2.50;;
5900;SDS011;2976;49.764;9.796;2023-10-09T12:28:39;5.17;;;3.33;;
5900;SDS011;2976;49.764;9.796;2023-10-09T12:31:05;5.90;;;3.10;;
5900;SDS011;2976;49.764;9.796;2023-10-09T12:33:30;11.57;;;2.93;;
5900;SDS011;2976;49.764;9.796;2023-10-09T12:35:56;11.03;;;3.20;;
5900;SDS011;2976;49.764;9.796;2023-10-09T12:38:28;11.17;;;3.37;;
5900;SDS011;2976;49.764;9.796;2023-10-09T12:41:00;12.87;;;3.63;;
5900;SDS011;2976;49.764;9.796;2023-10-09T12:43:45;8.57;;;3.23;;
5900;SDS011;2976;49.764;9.796;2023-10-09T12:46:11;7.20;;;2.90;;
5900;SDS011;2976;49.764;9.796;2023-10-09T12:48:41;8.13;;;2.97;;
5900;SDS011;2976;49.764;9.796;2023-10-09T12:51:11;9.20;;;3.70;;
5900;SDS011;2976;49.764;9.796;2023-10-09T12:53:44;10.90;;;3.37;;
5900;SDS011;2976;49.764;9.796;2023-10-09T12:56:13;7.47;;;2.90;;
5900;SDS011;2976;49.764;9.796;2023-10-09T12:58:40;9.73;;;3.80;;
5900;SDS011;2976;49.764;9.796;2023-10-09T13:01:17;10.63;;;3.27;;
5900;SDS011;2976;49.764;9.796;2023-10-09T13:03:44;8.63;;;2.80;;
5900;SDS011;2976;49.764;9.796;2023-10-09T13:06:14;4.90;;;2.60;;
5900;SDS011;2976;49.764;9.796;2023-10-09T13:08:40;9.50;;;3.60;;
5900;SDS011;2976;49.764;9.796;2023-10-09T13:11:10;5.90;;;3.10;;
5900;SDS011;2976;49.764;9.796;2023-10-09T13:13:37;6.33;;;3.33;;
5900;SDS011;2976;49.764;9.796;2023-10-09T13:18:47;11.53;;;2.70;;
5900;SDS011;2976;49.764;9.796;2023-10-09T13:21:22;9.83;;;3.70;;
5900;SDS011;2976;49.764;9.796;2023-10-09T13:23:51;6.97;;;3.00;;
5900;SDS011;2976;49.764;9.796;2023-10-09T13:26:19;6.33;;;3.17;;
5900;SDS011;2976;49.764;9.796;2023-10-09T13:28:55;8.53;;;2.80;;
5900;SDS011;2976;49.764;9.796;2023-10-09T13:31:22;8.37;;;2.90;;
5900;SDS011;2976;49.764;9.796;2023-10-09T13:33:54;8.10;;;3.60;;
5900;SDS011;2976;49.764;9.796;2023-10-09T13:36:20;5.97;;;2.87;;
5900;SDS011;2976;49.764;9.796;2023-10-09T13:38:56;6.70;;;3.50;;
5900;SDS011;2976;49.764;9.796;2023-10-09T13:41:23;18.10;;;3.23;;
5900;SDS011;2976;49.764;9.796;2023-10-09T13:43:54;7.90;;;3.70;;
5900;SDS011;2976;49.764;9.796;2023-10-09T13:46:22;14.33;;;3.90;;
5900;SDS011;2976;49.764;9.796;2023-10-09T13:48:49;12.43;;;2.70;;
5900;SDS011;2976;49.764;9.796;2023-10-09T13:51:17;7.40;;;3.27;;
5900;SDS011;2976;49.764;9.796;2023-10-09T13:53:47;6.20;;;3.27;;
5900;SDS011;2976;49.764;9.796;2023-10-09T13:58:40;11.50;;;3.57;;
5900;SDS011;2976;49.764;9.796;2023-10-09T14:01:08;10.13;;;3.57;;
5900;SDS011;2976;49.764;9.796;2023-10-09T14:03:34;12.63;;;2.77;;
5900;SDS011;2976;49.764;9.796;2023-10-09T14:06:00;8.50;;;3.13;;
5900;SDS011;2976;49.764;9.796;2023-10-09T14:08:35;5.60;;;3.20;;
5900;SDS011;2976;49.764;9.796;2023-10-09T14:11:07;10.87;;;3.63;;
5900;SDS011;2976;49.764;9.796;2023-10-09T14:13:39;5.50;;;2.73;;
5900;SDS011;2976;49.764;9.796;2023-10-09T14:16:05;5.20;;;2.90;;
5900;SDS011;2976;49.764;9.796;2023-10-09T14:18:31;12.30;;;3.40;;
5900;SDS011;2976;49.764;9.796;2023-10-09T14:21:01;6.30;;;3.00;;
5900;SDS011;2976;49.764;9.796;2023-10-09T14:23:30;8.40;;;2.93;;
5900;SDS011;2976;49.764;9.796;2023-10-09T14:25:59;14.60;;;4.13;;
5900;SDS011;2976;49.764;9.796;2023-10-09T14:28:26;7.07;;;3.00;;
5900;SDS011;2976;49.764;9.796;2023-10-09T14:30:54;6.33;;;2.90;;
5900;SDS011;2976;49.764;9.796;2023-10-09T14:33:24;6.77;;;3.70;;
5900;SDS011;2976;49.764;9.796;2023-10-09T14:35:52;5.40;;;2.93;;
5900;SDS011;2976;49.764;9.796;2023-10-09T14:38:19;7.63;;;3.77;;
5900;SDS011;2976;49.764;9.796;2023-10-09T14:40:52;6.20;;;3.10;;
5900;SDS011;2976;49.764;9.796;2023-10-09T14:43:24;10.47;;;3.23;;
5900;SDS011;2976;49.764;9.796;2023-10-09T14:45:53;8.90;;;3.00;;
5900;SDS011;2976;49.764;9.796;2023-10-09T14:48:19;11.40;;;2.73;;
5900;SDS011;2976;49.764;9.796;2023-10-09T14:50:51;9.20;;;3.20;;
5900;SDS011;2976;49.764;9.796;2023-10-09T14:53:18;5.63;;;2.90;;
5900;SDS011;2976;49.764;9.796;2023-10-09T14:55:57;13.10;;;3.80;;
5900;SDS011;2976;49.764;9.796;2023-10-09T14:58:26;6.00;;;2.50;;
5900;SDS011;2976;49.764;9.796;2023-10-09T15:00:54;6.20;;;2.83;;
5900;SDS011;2976;49.764;9.796;2023-10-09T15:03:20;5.27;;;3.03;;
5900;SDS011;2976;49.764;9.796;2023-10-09T15:05:47;7.07;;;3.60;;
5900;SDS011;2976;49.764;9.796;2023-10-09T15:08:16;5.60;;;3.20;;
5900;SDS011;2976;49.764;9.796;2023-10-09T15:13:12;8.97;;;3.83;;
5900;SDS011;2976;49.764;9.796;2023-10-09T15:15:42;10.00;;;3.20;;
5900;SDS011;2976;49.764;9.796;2023-10-09T15:18:08;7.90;;;3.10;;
5900;SDS011;2976;49.764;9.796;2023-10-09T15:20:37;18.13;;;3.10;;
5900;SDS011;2976;49.764;9.796;2023-10-09T15:23:04;6.53;;;2.80;;
5900;SDS011;2976;49.764;9.796;2023-10-09T15:25:31;8.57;;;3.00;;
5900;SDS011;2976;49.764;9.796;2023-10-09T15:27:59;11.73;;;2.93;;
5900;SDS011;2976;49.764;9.796;2023-10-09T15:30:25;9.33;;;3.10;;
5900;SDS011;2976;49.764;9.796;2023-10-09T15:32:53;9.90;;;2.97;;
5900;SDS011;2976;49.764;9.796;2023-10-09T15:35:21;9.90;;;4.20;;
5900;SDS011;2976;49.764;9.796;2023-10-09T15:37:47;11.20;;;4.47;;
5900;SDS011;2976;49.764;9.796;2023-10-09T15:40:13;10.97;;;3.37;;
5900;SDS011;2976;49.764;9.796;2023-10-09T15:42:44;6.83;;;3.30;;
5900;SDS011;2976;49.764;9.796;2023-10-09T15:45:15;8.27;;;3.43;;
5900;SDS011;2976;49.764;9.796;2023-10-09T15:47:41;5.27;;;3.23;;
5900;SDS011;2976;49.764;9.796;2023-10-09T15:50:07;10.47;;;3.10;;
5900;SDS011;2976;49.764;9.796;2023-10-09T15:52:34;6.43;;;4.00;;
5900;SDS011;2976;49.764;9.796;2023-10-09T15:54:59;6.93;;;2.80;;
5900;SDS011;2976;49.764;9.796;2023-10-09T15:57:26;8.67;;;2.90;;
5900;SDS011;2976;49.764;9.796;2023-10-09T15:59:51;11.73;;;3.40;;
5900;SDS011;2976;49.764;9.796;2023-10-09T16:02:17;8.33;;;3.17;;
5900;SDS011;2976;49.764;9.796;2023-10-09T16:04:43;13.53;;;3.57;;